createdAt,value
2023-09-30T00:02:26.463Z,99833.72
2023-09-30T00:05:16.024Z,99818.53
2023-09-30T00:08:03.990Z,99835.41
2023-09-30T00:10:54.332Z,99836.25
2023-09-30T00:13:42.058Z,99834.63
2023-09-30T00:16:29.789Z,99832.16
2023-09-30T00:19:17.613Z,99837.69
2023-09-30T00:22:05.544Z,99827.69
2023-09-30T00:24:53.377Z,99825.28
2023-09-30T00:27:42.896Z,99822.78
2023-09-30T00:30:30.882Z,99829.84
2023-09-30T00:33:18.818Z,99825.56
2023-09-30T00:36:11.148Z,99817.75
2023-09-30T00:38:59.518Z,99807.84
2023-09-30T00:41:47.554Z,99806.56
2023-09-30T00:44:36.623Z,99814.50
2023-09-30T00:47:25.210Z,99814.50
2023-09-30T00:50:14.530Z,99807.75
2023-09-30T00:53:02.282Z,99805.00
2023-09-30T00:55:50.614Z,99807.28
2023-09-30T00:58:40.238Z,99814.09
2023-09-30T01:01:30.302Z,99809.75
2023-09-30T01:04:18.911Z,99813.59
2023-09-30T01:07:07.358Z,99804.53
2023-09-30T01:09:55.209Z,99805.06
2023-09-30T01:12:43.805Z,99814.03
2023-09-30T01:15:31.972Z,99805.13
2023-09-30T01:18:21.154Z,99807.19
2023-09-30T01:21:09.656Z,99802.72
2023-09-30T01:23:58.888Z,99802.22
2023-09-30T01:26:46.916Z,99796.06
2023-09-30T01:29:34.709Z,99802.09
2023-09-30T01:32:22.588Z,99791.91
2023-09-30T01:35:11.069Z,99798.78
2023-09-30T01:37:58.796Z,99800.78
2023-09-30T01:40:48.488Z,99796.22
2023-09-30T01:43:37.610Z,99802.00
2023-09-30T01:46:25.401Z,99797.31
2023-09-30T01:49:13.172Z,99794.81
2023-09-30T01:52:00.820Z,99796.94
2023-09-30T01:54:48.959Z,99786.38
2023-09-30T01:57:38.232Z,99795.56
2023-09-30T02:00:26.290Z,99791.47
2023-09-30T02:03:14.156Z,99791.91
2023-09-30T02:06:02.174Z,99792.88
2023-09-30T02:08:49.834Z,99792.88
2023-09-30T02:11:37.725Z,99781.59
2023-09-30T02:14:26.880Z,99789.84
2023-09-30T02:17:14.614Z,99786.22
2023-09-30T02:20:07.009Z,99790.97
2023-09-30T02:22:55.582Z,99787.19
2023-09-30T02:25:44.287Z,99782.56
2023-09-30T02:28:33.331Z,99779.41
2023-09-30T02:31:22.617Z,99779.66
2023-09-30T02:34:10.731Z,99783.63
2023-09-30T02:37:00.379Z,99779.19
2023-09-30T02:39:48.449Z,99784.69
2023-09-30T02:42:36.304Z,99776.88
2023-09-30T02:45:24.372Z,99767.84
2023-09-30T02:48:13.515Z,99783.41
2023-09-30T02:51:01.324Z,99782.03
2023-09-30T02:53:49.965Z,99779.63
2023-09-30T02:56:37.845Z,99778.06
2023-09-30T02:59:26.075Z,99778.41
2023-09-30T03:02:13.819Z,99780.91
2023-09-30T03:05:03.953Z,99780.34
2023-09-30T03:07:52.869Z,99780.59
2023-09-30T03:10:42.176Z,99777.44
2023-09-30T03:13:30.161Z,99774.06
2023-09-30T03:16:17.915Z,99781.16
2023-09-30T03:19:09.387Z,99777.50
2023-09-30T03:21:58.663Z,99783.59
2023-09-30T03:24:46.812Z,99779.38
2023-09-30T03:27:35.544Z,99780.72
2023-09-30T03:30:23.393Z,99786.28
2023-09-30T03:33:11.305Z,99781.03
2023-09-30T03:36:00.343Z,99784.84
2023-09-30T03:38:49.733Z,99784.41
2023-09-30T03:41:38.706Z,99784.19
2023-09-30T03:44:26.366Z,99791.44
2023-09-30T03:47:14.128Z,99786.03
2023-09-30T03:50:03.807Z,99786.03
2023-09-30T03:52:51.716Z,99786.53
2023-09-30T03:55:40.804Z,99792.78
2023-09-30T03:58:28.835Z,99786.72
2023-09-30T04:01:18.016Z,99786.19
2023-09-30T04:04:06.643Z,99783.16
2023-09-30T04:06:54.504Z,99785.34
2023-09-30T04:09:42.533Z,99784.50
2023-09-30T04:12:33.752Z,99785.16
2023-09-30T04:15:21.632Z,99791.59
2023-09-30T04:18:09.584Z,99790.63
2023-09-30T04:20:58.075Z,99791.88
2023-09-30T04:23:47.586Z,99795.28
2023-09-30T04:26:35.879Z,99793.50
2023-09-30T04:29:24.970Z,99789.16
2023-09-30T04:32:13.024Z,99800.78
2023-09-30T04:35:01.271Z,99719.94
2023-09-30T04:37:49.529Z,99800.94
2023-09-30T04:40:37.115Z,99802.16
2023-09-30T04:43:25.022Z,99807.25
2023-09-30T04:46:14.778Z,99806.34
2023-09-30T04:49:03.977Z,99804.97
2023-09-30T04:51:51.948Z,99809.13
2023-09-30T04:54:39.711Z,99813.31
2023-09-30T04:57:27.758Z,99817.03
2023-09-30T05:00:18.195Z,99817.50
2023-09-30T05:03:08.486Z,99816.66
2023-09-30T05:05:58.037Z,99815.75
2023-09-30T05:08:45.917Z,99813.72
2023-09-30T05:11:34.314Z,99817.63
2023-09-30T05:14:22.347Z,99820.25
2023-09-30T05:17:10.394Z,99821.56
2023-09-30T05:20:00.262Z,99822.88
2023-09-30T05:22:49.871Z,99827.94
2023-09-30T05:25:37.745Z,99822.53
2023-09-30T05:28:25.525Z,99823.13
2023-09-30T05:31:13.624Z,99821.16
2023-09-30T05:34:02.186Z,99823.16
2023-09-30T05:36:53.000Z,99824.75
2023-09-30T05:39:40.808Z,99829.31
2023-09-30T05:42:28.632Z,99834.63
2023-09-30T05:45:16.921Z,99830.72
2023-09-30T05:48:07.386Z,99805.88
2023-09-30T05:50:55.344Z,99840.44
2023-09-30T05:53:44.422Z,99843.22
2023-09-30T05:56:32.118Z,99842.00
2023-09-30T05:59:19.812Z,99841.44
2023-09-30T06:02:07.817Z,99846.41
2023-09-30T06:04:55.859Z,99843.78
2023-09-30T06:07:46.412Z,99847.03
2023-09-30T06:10:36.569Z,99848.16
2023-09-30T06:13:24.289Z,99848.00
2023-09-30T06:16:13.388Z,99849.03
2023-09-30T06:19:01.143Z,99852.84
2023-09-30T06:21:48.981Z,99843.66
2023-09-30T06:24:37.997Z,99841.88
2023-09-30T06:27:27.320Z,99855.31
2023-09-30T06:30:18.122Z,99852.31
2023-09-30T06:33:07.878Z,99850.41
2023-09-30T06:35:55.861Z,99853.34
2023-09-30T06:38:44.117Z,99854.91
2023-09-30T06:41:32.016Z,99848.13
2023-09-30T06:44:21.947Z,99847.38
2023-09-30T06:47:13.319Z,99835.72
2023-09-30T06:50:01.065Z,99842.06
2023-09-30T06:52:50.847Z,99845.28
2023-09-30T06:55:40.899Z,99838.91
2023-09-30T06:58:28.853Z,99837.06
2023-09-30T07:01:19.480Z,99851.34
2023-09-30T07:04:07.791Z,99845.72
2023-09-30T07:06:55.801Z,99851.81
2023-09-30T07:09:44.751Z,99850.81
2023-09-30T07:12:33.057Z,99848.84
2023-09-30T07:15:20.826Z,99852.19
2023-09-30T07:18:10.478Z,99853.13
2023-09-30T07:20:58.351Z,99850.06
2023-09-30T07:23:46.174Z,99851.59
2023-09-30T07:26:33.885Z,99856.63
2023-09-30T07:29:21.595Z,99860.00
2023-09-30T07:32:09.907Z,99861.22
2023-09-30T07:34:58.968Z,99857.66
2023-09-30T07:37:47.022Z,99867.44
2023-09-30T07:40:34.969Z,99861.97
2023-09-30T07:43:23.221Z,99862.91
2023-09-30T07:46:11.052Z,99861.47
2023-09-30T07:49:00.247Z,99860.03
2023-09-30T07:51:49.701Z,99866.38
2023-09-30T07:54:37.730Z,99863.28
2023-09-30T07:57:25.657Z,99864.34
2023-09-30T08:00:17.355Z,99855.97
2023-09-30T08:03:05.817Z,99854.72
2023-09-30T08:05:53.511Z,99858.72
2023-09-30T08:08:42.636Z,99840.50
2023-09-30T08:11:33.464Z,99855.59
2023-09-30T08:14:21.328Z,99782.34
2023-09-30T08:17:09.255Z,99845.34
2023-09-30T08:19:57.053Z,99848.91
2023-09-30T08:22:46.082Z,99851.19
2023-09-30T08:25:35.157Z,99837.16
2023-09-30T08:28:23.588Z,99845.94
2023-09-30T08:31:11.435Z,99849.91
2023-09-30T08:33:59.145Z,99845.28
2023-09-30T08:36:47.171Z,99848.22
2023-09-30T08:39:36.243Z,99842.06
2023-09-30T08:42:26.708Z,99840.75
2023-09-30T08:45:17.145Z,99846.22
2023-09-30T08:48:06.614Z,99843.31
2023-09-30T08:50:57.013Z,99835.00
2023-09-30T08:53:46.573Z,99837.09
2023-09-30T08:56:35.104Z,99829.59
2023-09-30T08:59:25.570Z,99822.06
2023-09-30T09:02:13.306Z,99830.00
2023-09-30T09:05:02.742Z,99815.03
2023-09-30T09:07:51.675Z,99824.34
2023-09-30T09:10:56.054Z,99838.72
2023-09-30T09:13:51.919Z,99828.34
2023-09-30T09:16:54.260Z,99823.81
2023-09-30T09:19:42.342Z,99826.31
2023-09-30T09:22:40.607Z,99789.47
2023-09-30T09:25:28.451Z,99824.34
2023-09-30T09:28:17.854Z,99832.47
2023-09-30T09:31:24.153Z,99827.91
2023-09-30T09:34:16.952Z,99797.28
2023-09-30T09:37:16.303Z,99822.56
2023-09-30T09:40:05.202Z,99810.75
2023-09-30T09:42:55.921Z,99821.94
2023-09-30T09:45:44.974Z,99816.59
2023-09-30T09:48:33.547Z,99811.81
2023-09-30T09:51:22.901Z,99806.03
2023-09-30T09:54:10.973Z,99817.38
2023-09-30T09:57:01.934Z,99786.53
2023-09-30T09:59:50.569Z,99804.63
2023-09-30T10:02:39.065Z,99800.81
2023-09-30T10:05:28.638Z,99805.81
2023-09-30T10:08:21.044Z,99793.63
2023-09-30T10:11:09.362Z,99802.00
2023-09-30T10:13:58.266Z,99805.59
2023-09-30T10:16:53.401Z,99789.41
2023-09-30T10:20:09.049Z,99795.72
2023-09-30T10:23:21.694Z,99787.66
2023-09-30T10:26:19.464Z,99801.00
2023-09-30T10:29:11.786Z,99792.31
2023-09-30T10:31:59.514Z,99784.19
2023-09-30T10:34:50.950Z,99780.94
2023-09-30T10:37:39.278Z,99788.84
2023-09-30T10:40:30.683Z,99776.28
2023-09-30T10:43:32.048Z,99776.88
2023-09-30T10:46:35.141Z,99782.66
2023-09-30T10:49:40.884Z,99777.78
2023-09-30T10:52:28.898Z,99786.72
2023-09-30T10:55:21.588Z,99773.16
2023-09-30T10:58:11.230Z,99758.91
2023-09-30T11:00:59.290Z,99764.53
2023-09-30T11:03:49.021Z,99767.34
2023-09-30T11:06:37.226Z,99751.41
2023-09-30T11:09:25.590Z,99766.47
2023-09-30T11:12:16.753Z,99756.09
2023-09-30T11:15:07.108Z,99763.44
2023-09-30T11:17:54.924Z,99749.22
2023-09-30T11:20:42.899Z,99750.78
2023-09-30T11:23:30.828Z,99757.75
2023-09-30T11:26:18.816Z,99754.94
2023-09-30T11:29:10.839Z,99746.53
2023-09-30T11:31:59.891Z,99741.88
2023-09-30T11:34:47.893Z,99730.16
2023-09-30T11:37:35.824Z,99729.94
2023-09-30T11:40:24.490Z,99732.75
2023-09-30T11:43:13.681Z,99738.59
2023-09-30T11:46:10.022Z,99733.97
2023-09-30T11:49:03.414Z,99732.59
2023-09-30T11:51:52.023Z,99728.50
2023-09-30T11:54:42.668Z,99741.16
2023-09-30T11:57:30.567Z,99732.81
2023-09-30T12:00:19.097Z,99720.50
2023-09-30T12:03:07.860Z,99704.38
2023-09-30T12:05:57.467Z,99732.63
2023-09-30T12:08:46.467Z,99710.53
2023-09-30T12:11:34.442Z,99721.84
2023-09-30T12:14:22.732Z,99706.09
2023-09-30T12:17:13.624Z,99710.09
2023-09-30T12:20:01.719Z,99703.78
2023-09-30T12:22:51.172Z,99702.84
2023-09-30T12:25:39.053Z,99699.22
2023-09-30T12:28:28.127Z,99688.50
2023-09-30T12:31:16.890Z,99693.59
2023-09-30T12:34:04.721Z,99695.13
2023-09-30T12:36:52.845Z,99692.63
2023-09-30T12:39:42.035Z,99689.06
2023-09-30T12:42:30.983Z,99676.41
2023-09-30T12:45:19.315Z,99674.03
2023-09-30T12:48:08.354Z,99671.25
2023-09-30T12:50:56.052Z,99682.97
2023-09-30T12:53:43.919Z,99661.38
2023-09-30T12:56:34.178Z,99666.31
2023-09-30T12:59:25.480Z,99663.88
2023-09-30T13:02:13.251Z,99643.41
2023-09-30T13:05:01.482Z,99655.09
2023-09-30T13:07:49.246Z,99661.00
2023-09-30T13:10:39.008Z,99656.06
2023-09-30T13:13:28.038Z,99654.09
2023-09-30T13:16:16.017Z,99645.81
2023-09-30T13:19:04.363Z,99646.44
2023-09-30T13:21:54.210Z,99657.53
2023-09-30T13:24:43.615Z,99652.19
2023-09-30T13:27:31.416Z,99634.94
2023-09-30T13:30:20.681Z,99640.44
2023-09-30T13:33:08.583Z,99643.78
2023-09-30T13:35:57.194Z,99641.22
2023-09-30T13:38:45.538Z,99634.84
2023-09-30T13:41:36.419Z,99640.00
2023-09-30T13:44:24.181Z,99633.09
2023-09-30T13:47:13.260Z,99634.00
2023-09-30T13:50:01.301Z,99637.03
2023-09-30T13:52:48.987Z,99634.63
2023-09-30T13:55:40.678Z,99628.25
2023-09-30T13:58:28.746Z,99613.31
2023-09-30T14:01:16.694Z,99630.81
2023-09-30T14:04:06.099Z,99622.56
2023-09-30T14:06:53.996Z,99624.63
2023-09-30T14:09:41.881Z,99619.22
2023-09-30T14:12:29.880Z,99622.16
2023-09-30T14:15:17.846Z,99624.13
2023-09-30T14:18:06.431Z,99616.84
2023-09-30T14:20:55.572Z,99623.66
2023-09-30T14:23:43.296Z,99621.97
2023-09-30T14:26:31.040Z,99615.25
2023-09-30T14:29:18.882Z,99617.16
2023-09-30T14:32:08.291Z,99615.25
2023-09-30T14:34:56.486Z,99617.75
2023-09-30T14:37:45.813Z,99618.03
2023-09-30T14:40:38.701Z,99620.72
2023-09-30T14:43:26.542Z,99626.38
2023-09-30T14:46:14.266Z,99617.97
2023-09-30T14:49:02.335Z,99621.38
2023-09-30T14:51:50.538Z,99618.94
2023-09-30T14:54:40.106Z,99617.22
2023-09-30T14:57:27.981Z,99622.94
2023-09-30T15:00:16.677Z,99626.22
2023-09-30T15:03:04.921Z,99627.28
2023-09-30T15:06:00.343Z,99626.44
2023-09-30T15:08:48.161Z,99625.91
2023-09-30T15:11:37.317Z,99620.75
2023-09-30T15:14:25.012Z,99620.69
2023-09-30T15:17:12.662Z,99616.06
2023-09-30T15:20:01.012Z,99611.50
2023-09-30T15:22:48.971Z,99618.25
2023-09-30T15:25:41.335Z,99620.22
2023-09-30T15:28:30.444Z,99600.50
2023-09-30T15:31:18.203Z,99623.31
2023-09-30T15:34:06.896Z,99620.84
2023-09-30T15:36:54.765Z,99627.97
2023-09-30T15:39:43.661Z,99626.38
2023-09-30T15:42:31.764Z,99626.38
2023-09-30T15:45:21.096Z,99624.78
2023-09-30T15:48:08.920Z,99630.41
2023-09-30T15:50:56.829Z,99626.94
2023-09-30T15:53:45.688Z,99630.72
2023-09-30T15:56:42.248Z,99633.66
2023-09-30T15:59:41.615Z,99635.16
2023-09-30T16:02:31.460Z,99635.16
2023-09-30T16:05:19.320Z,99640.84
2023-09-30T16:08:08.170Z,99633.75
2023-09-30T16:10:55.951Z,99637.94
2023-09-30T16:13:43.595Z,99634.16
2023-09-30T16:16:31.375Z,99651.06
2023-09-30T16:19:20.567Z,99638.47
2023-09-30T16:22:08.316Z,99643.97
2023-09-30T16:24:56.394Z,99643.75
2023-09-30T16:27:44.330Z,99650.31
2023-09-30T16:30:32.487Z,99644.22
2023-09-30T16:33:25.741Z,99647.38
2023-09-30T16:36:16.417Z,99650.34
2023-09-30T16:39:04.764Z,99656.19
2023-09-30T16:41:52.457Z,99649.53
2023-09-30T16:44:40.189Z,99659.19
2023-09-30T16:47:28.233Z,99657.13
2023-09-30T16:50:16.054Z,99661.69
2023-09-30T16:53:05.439Z,99663.38
2023-09-30T16:55:53.804Z,99668.88
2023-09-30T16:58:41.784Z,99669.97
2023-09-30T17:01:30.117Z,99658.44
2023-09-30T17:04:18.218Z,99671.78
2023-09-30T17:07:06.082Z,99670.56
2023-09-30T17:09:55.262Z,99671.00
2023-09-30T17:12:45.577Z,99677.47
2023-09-30T17:15:33.516Z,99675.63
2023-09-30T17:18:21.779Z,99670.22
2023-09-30T17:21:09.793Z,99673.16
2023-09-30T17:23:58.103Z,99677.53
2023-09-30T17:26:47.320Z,99687.81
2023-09-30T17:29:35.216Z,99679.66
2023-09-30T17:32:22.931Z,99681.94
2023-09-30T17:35:11.131Z,99687.38
2023-09-30T17:37:59.101Z,99689.44
2023-09-30T17:40:46.882Z,99691.53
2023-09-30T17:43:36.876Z,99693.84
2023-09-30T17:46:24.780Z,99704.72
2023-09-30T17:49:12.705Z,99700.75
2023-09-30T17:52:00.821Z,99698.69
2023-09-30T17:54:48.654Z,99702.66
2023-09-30T17:57:36.640Z,99702.63
2023-09-30T18:00:28.321Z,99707.44
2023-09-30T18:03:16.781Z,99709.56
2023-09-30T18:06:08.277Z,99706.00
2023-09-30T18:08:56.789Z,99715.19
2023-09-30T18:11:44.724Z,99711.84
2023-09-30T18:14:32.818Z,99709.34
2023-09-30T18:17:22.394Z,99709.53
2023-09-30T18:20:11.764Z,99709.13
2023-09-30T18:22:59.673Z,99712.03
2023-09-30T18:25:47.843Z,99712.47
2023-09-30T18:28:36.127Z,99693.00
2023-09-30T18:31:24.462Z,99710.75
2023-09-30T18:34:13.965Z,99721.41
2023-09-30T18:37:02.152Z,99721.84
2023-09-30T18:39:51.741Z,99718.28
2023-09-30T18:42:39.943Z,99722.88
2023-09-30T18:45:29.955Z,99730.41
2023-09-30T18:48:18.394Z,99733.28
2023-09-30T18:51:09.190Z,99731.81
2023-09-30T18:53:57.312Z,99737.88
2023-09-30T18:56:45.533Z,99727.22
2023-09-30T18:59:33.835Z,99738.06
2023-09-30T19:02:21.674Z,99730.16
2023-09-30T19:05:10.693Z,99732.00
2023-09-30T19:08:00.270Z,99734.94
2023-09-30T19:10:49.696Z,99732.44
2023-09-30T19:13:40.857Z,99733.22
2023-09-30T19:16:30.136Z,99731.75
2023-09-30T19:19:18.182Z,99735.97
2023-09-30T19:22:06.957Z,99732.78
2023-09-30T19:24:56.432Z,99729.88
2023-09-30T19:27:44.475Z,99731.13
2023-09-30T19:30:32.659Z,99742.81
2023-09-30T19:33:20.520Z,99735.25
2023-09-30T19:36:09.629Z,99674.31
2023-09-30T19:38:57.470Z,99734.25
2023-09-30T19:41:47.116Z,99729.16
2023-09-30T19:44:35.852Z,99731.44
2023-09-30T19:47:24.896Z,99732.72
2023-09-30T19:50:13.017Z,99740.59
2023-09-30T19:53:00.652Z,99734.50
2023-09-30T19:55:49.906Z,99734.97
2023-09-30T19:58:39.482Z,99734.09
2023-09-30T20:01:27.793Z,99738.09
2023-09-30T20:04:16.609Z,99737.22
2023-09-30T20:07:05.104Z,99737.59
2023-09-30T20:09:54.211Z,99731.31
2023-09-30T20:12:42.407Z,99736.31
2023-09-30T20:15:31.824Z,99736.72
2023-09-30T20:18:19.784Z,99734.31
2023-09-30T20:21:07.535Z,99734.59
2023-09-30T20:26:43.197Z,99727.81
2023-09-30T20:29:31.257Z,99725.56
2023-09-30T20:32:20.353Z,99728.91
2023-09-30T20:35:10.081Z,99725.31
2023-09-30T20:37:57.856Z,99717.66
2023-09-30T20:40:45.705Z,99722.03
2023-09-30T20:43:33.645Z,99716.22
2023-09-30T20:46:21.441Z,99708.75
2023-09-30T20:49:11.472Z,99705.22
2023-09-30T20:52:00.230Z,99707.72
2023-09-30T20:54:48.465Z,99716.28
2023-09-30T20:57:36.247Z,99723.19
2023-09-30T21:00:25.297Z,99727.28
2023-09-30T21:03:13.362Z,99713.50
2023-09-30T21:06:07.199Z,99719.94
2023-09-30T21:08:54.967Z,99715.75
2023-09-30T21:11:43.019Z,99721.97
2023-09-30T21:14:30.775Z,99718.94
2023-09-30T21:17:18.582Z,99719.81
2023-09-30T21:20:08.039Z,99726.19
2023-09-30T21:22:57.401Z,99721.97
2023-09-30T21:25:45.825Z,99716.28
2023-09-30T21:28:33.650Z,99710.28
2023-09-30T21:31:25.228Z,99708.44
2023-09-30T21:34:13.488Z,99712.56
2023-09-30T21:37:01.691Z,99697.22
2023-09-30T21:39:51.026Z,99714.31
2023-09-30T21:42:38.995Z,99714.88
2023-09-30T21:45:26.701Z,99708.06
2023-09-30T21:48:14.388Z,99715.22
2023-09-30T21:51:02.184Z,99715.06
2023-09-30T21:53:49.945Z,99715.66
2023-09-30T21:56:39.009Z,99712.94
2023-09-30T21:59:26.656Z,99707.31
2023-09-30T22:02:15.599Z,99705.66
2023-09-30T22:05:03.336Z,99709.66
2023-09-30T22:07:51.358Z,99707.03
2023-09-30T22:10:39.173Z,99701.22
2023-09-30T22:13:28.862Z,99701.22
2023-09-30T22:16:16.884Z,99707.25
2023-09-30T22:19:04.672Z,99709.91
2023-09-30T22:21:53.133Z,99708.28
2023-09-30T22:24:40.912Z,99711.03
2023-09-30T22:27:28.910Z,99707.88
2023-09-30T22:30:18.255Z,99715.47
2023-09-30T22:33:07.205Z,99714.63
2023-09-30T22:35:54.986Z,99710.06
2023-09-30T22:38:42.632Z,99702.06
2023-09-30T22:41:30.510Z,99709.69
2023-09-30T22:44:19.057Z,99716.25
2023-09-30T22:47:08.407Z,99706.84
2023-09-30T22:49:57.945Z,99712.72
2023-09-30T22:52:47.761Z,99718.34
2023-09-30T22:55:36.301Z,99711.28
2023-09-30T22:58:24.113Z,99711.56
2023-09-30T23:01:17.127Z,99715.22
2023-09-30T23:04:07.480Z,99716.06
2023-09-30T23:06:55.604Z,99718.38
2023-09-30T23:09:44.088Z,99707.75
2023-09-30T23:12:31.866Z,99723.78
2023-09-30T23:15:21.413Z,99694.00
2023-09-30T23:18:10.172Z,99718.13
2023-09-30T23:20:59.846Z,99720.28
2023-09-30T23:23:47.540Z,99717.88
2023-09-30T23:26:35.614Z,99716.13
2023-09-30T23:29:23.286Z,99722.19
2023-09-30T23:32:12.001Z,99716.59
2023-09-30T23:35:00.503Z,99712.00
2023-09-30T23:37:53.796Z,99690.22
2023-09-30T23:40:42.134Z,99709.06
2023-09-30T23:43:30.463Z,99703.00
2023-09-30T23:46:18.266Z,99718.69
2023-09-30T23:49:07.754Z,99711.41
2023-09-30T23:51:56.052Z,99711.78
2023-09-30T23:54:46.811Z,99711.22
2023-09-30T23:57:38.101Z,99699.66
